This is the latest recevied weather packets stored in our database for station/object PY4QS. If no packets are shown the sender has not sent any weather packets the latest 10 day(s).
| Time | Temp. | Humidity | Pressure | Rain* | Wind** | Luminosity | Snow |
|---|---|---|---|---|---|---|---|
| 1777880769 | 13.89° C | 80% | 1023.3 hPa | - | - | - | - |
| 1777879854 | 14.44° C | 79% | 1023.4 hPa | - | - | - | - |
| 1777877407 | 15° C | 77% | 1023.6 hPa | - | - | - | - |
| 1777876186 | 15° C | 76% | 1023.6 hPa | - | - | - | - |
| 1777869465 | 15.56° C | 74% | 1023.6 hPa | - | - | - | - |
| 1777866095 | 16.11° C | 72% | 1024 hPa | - | - | - | - |
| 1777865791 | 16.11° C | 71% | 1023.9 hPa | - | - | - | - |
| 1777864260 | 16.11° C | 71% | 1024.1 hPa | - | - | - | - |
| 1777861192 | 16.11° C | 71% | 1024.3 hPa | - | - | - | - |
| 1777859356 | 16.67° C | 70% | 1024.3 hPa | - | - | - | - |
| 1777858744 | 16.67° C | 69% | 1024.3 hPa | - | - | - | - |
| 1777857515 | 16.67° C | 69% | 1024.5 hPa | - | - | - | - |
| 1777856594 | 16.67° C | 68% | 1024.5 hPa | - | - | - | - |
| 1777854149 | 17.22° C | 68% | 1024.5 hPa | - | - | - | - |
| 1777852008 | 17.22° C | 67% | 1024.5 hPa | - | - | - | - |
| 1777849561 | 17.22° C | 68% | 1024.2 hPa | - | - | - | - |
| 1777848948 | 17.22° C | 69% | 1024.2 hPa | - | - | - | - |
| 1777848032 | 17.78° C | 68% | 1024.1 hPa | - | - | - | - |
| 1777844368 | 18.33° C | 67% | 1023.6 hPa | - | - | - | - |
| 1777843753 | 18.33° C | 67% | 1023.5 hPa | - | - | - | - |
| 1777840886 | 18.89° C | 66% | 1023.4 hPa | - | - | - | - |
| 1777840044 | 18.89° C | 64% | 1023.3 hPa | - | - | - | - |
| 1777837159 | 21.67° C | 59% | 1022.7 hPa | - | - | - | - |
| 1777836741 | 20° C | 62% | 1022.8 hPa | - | - | - | - |
* Rain since midnight (hover to see other rain measurements)
** Current wind speed in m/s (hover to see current wind gust speed)